Time,TemperatureF,DewpointF,PressureIn,WindDirection,WindDirectionDegrees,WindSpeedMPH,WindSpeedGustMPH,Humidity,HourlyPrecipIn,Conditions,Clouds,dailyrainin,SolarRadiationWatts/m^2,SoftwareType,DateUTC
2013-02-15 00:01:00,25.0,22.0,-100.00,South,173,2.0,4.0,89,-99.99,,,-99.99,0.000000,,2013-02-15 08:01:00,
2013-02-15 00:11:00,25.0,22.0,-100.00,South,173,2.0,4.0,89,-99.99,,,-99.99,0.000000,,2013-02-15 08:11:00,
2013-02-15 00:21:00,25.0,22.0,-100.00,South,173,2.0,4.0,89,-99.99,,,-99.99,0.000000,,2013-02-15 08:21:00,
2013-02-15 00:31:00,25.0,22.0,-100.00,South,173,2.0,4.0,89,-99.99,,,-99.99,0.000000,,2013-02-15 08:31:00,
2013-02-15 01:01:00,23.0,20.0,-100.00,NNW,336,1.0,3.0,89,-99.99,,,-99.99,0.000000,,2013-02-15 09:01:00,
2013-02-15 01:12:00,23.0,20.0,-100.00,NNW,336,1.0,3.0,89,-99.99,,,-99.99,0.000000,,2013-02-15 09:12:00,
2013-02-15 01:21:00,23.0,20.0,-100.00,NNW,336,1.0,3.0,89,-99.99,,,-99.99,0.000000,,2013-02-15 09:21:00,
2013-02-15 02:01:00,22.0,20.0,-100.00,SSE,167,1.0,2.0,90,-99.99,,,-99.99,0.000000,,2013-02-15 10:01:00,
2013-02-15 02:11:00,22.0,20.0,-100.00,SSE,167,1.0,2.0,90,-99.99,,,-99.99,0.000000,,2013-02-15 10:11:00,
2013-02-15 02:21:00,22.0,20.0,-100.00,SSE,167,1.0,2.0,90,-99.99,,,-99.99,0.000000,,2013-02-15 10:21:00,
2013-02-15 03:01:00,21.0,19.0,-100.00,ENE,77,1.0,3.0,90,-99.99,,,-99.99,0.000000,,2013-02-15 11:01:00,
2013-02-15 03:52:00,20.0,18.0,-100.00,ENE,71,0.0,2.0,90,-99.99,,,-99.99,0.000000,,2013-02-15 11:52:00,
2013-02-15 04:01:00,20.0,18.0,-100.00,ENE,71,0.0,2.0,90,-99.99,,,-99.99,0.000000,,2013-02-15 12:01:00,
2013-02-15 04:11:00,20.0,18.0,-100.00,ENE,71,0.0,2.0,90,-99.99,,,-99.99,0.000000,,2013-02-15 12:11:00,
2013-02-15 04:21:00,20.0,18.0,-100.00,ENE,71,0.0,2.0,90,-99.99,,,-99.99,0.000000,,2013-02-15 12:21:00,
2013-02-15 05:02:00,19.0,16.0,-100.00,SSW,196,1.0,2.0,89,-99.99,,,-99.99,0.000000,,2013-02-15 13:02:00,
2013-02-15 05:11:00,19.0,16.0,-100.00,SSW,196,1.0,2.0,89,-99.99,,,-99.99,0.000000,,2013-02-15 13:11:00,
2013-02-15 05:21:00,19.0,16.0,-100.00,SSW,196,1.0,2.0,89,-99.99,,,-99.99,0.000000,,2013-02-15 13:21:00,
2013-02-15 06:01:00,18.0,15.0,-100.00,South,175,1.0,2.0,88,-99.99,,,-99.99,0.000000,,2013-02-15 14:01:00,
2013-02-15 06:11:00,18.0,15.0,-100.00,South,175,1.0,2.0,88,-99.99,,,-99.99,0.000000,,2013-02-15 14:11:00,
2013-02-15 06:21:00,18.0,15.0,-100.00,South,175,1.0,2.0,88,-99.99,,,-99.99,0.000000,,2013-02-15 14:21:00,
2013-02-15 07:01:00,17.0,14.0,-100.00,WNW,286,1.0,4.0,87,-99.99,,,-99.99,0.000000,,2013-02-15 15:01:00,
2013-02-15 08:01:00,18.0,15.0,-100.00,East,83,1.0,3.0,86,-99.99,,,-99.99,4.000000,,2013-02-15 16:01:00,
2013-02-15 08:11:00,18.0,15.0,-100.00,East,83,1.0,3.0,86,-99.99,,,-99.99,4.000000,,2013-02-15 16:11:00,
2013-02-15 08:22:00,18.0,15.0,-100.00,East,83,1.0,3.0,86,-99.99,,,-99.99,4.000000,,2013-02-15 16:22:00,
2013-02-15 09:01:00,25.0,21.0,-100.00,SSE,147,2.0,3.0,83,-99.99,,,0.00,86.000000,,2013-02-15 17:01:00,
2013-02-15 09:11:00,25.0,21.0,-100.00,SSE,147,2.0,3.0,83,-99.99,,,0.00,86.000000,,2013-02-15 17:11:00,
2013-02-15 09:21:00,25.0,21.0,-100.00,SSE,147,2.0,3.0,83,-99.99,,,0.00,86.000000,,2013-02-15 17:21:00,
2013-02-15 09:31:00,25.0,21.0,-100.00,SSE,147,2.0,3.0,83,-99.99,,,0.00,86.000000,,2013-02-15 17:31:00,
2013-02-15 10:01:00,42.0,25.0,-100.00,North,5,2.0,4.0,51,-99.99,,,0.00,378.000000,,2013-02-15 18:01:00,
2013-02-15 10:31:00,42.0,25.0,-100.00,North,5,2.0,4.0,51,-99.99,,,0.00,378.000000,,2013-02-15 18:31:00,
2013-02-15 11:01:00,49.0,23.0,-100.00,NW,320,2.0,5.0,35,0.00,,,0.00,512.000000,,2013-02-15 19:01:00,
2013-02-15 12:01:00,53.0,24.0,-100.00,North,352,2.0,7.0,32,0.00,,,-99.99,609.000000,,2013-02-15 20:01:00,
2013-02-15 13:01:00,55.0,23.0,-100.00,NNE,19,2.0,7.0,28,0.00,,,0.00,638.000000,,2013-02-15 21:01:00,
2013-02-15 14:02:00,52.0,21.0,-100.00,NNW,347,3.0,8.0,29,0.00,,,0.00,350.000000,,2013-02-15 22:02:00,
2013-02-15 14:11:00,52.0,21.0,-100.00,NNW,347,3.0,8.0,29,0.00,,,0.00,350.000000,,2013-02-15 22:11:00,
2013-02-15 14:21:00,52.0,21.0,-100.00,NNW,347,3.0,8.0,29,0.00,,,0.00,350.000000,,2013-02-15 22:21:00,
2013-02-15 14:31:00,52.0,21.0,-100.00,NNW,347,3.0,8.0,29,0.00,,,0.00,350.000000,,2013-02-15 22:31:00,
2013-02-15 15:02:00,54.0,21.0,-100.00,NNW,327,2.0,7.0,27,0.00,,,0.00,113.000000,,2013-02-15 23:02:00,
2013-02-15 15:11:00,54.0,21.0,-100.00,NNW,327,2.0,7.0,27,0.00,,,0.00,113.000000,,2013-02-15 23:11:00,
2013-02-15 15:21:00,54.0,21.0,-100.00,NNW,327,2.0,7.0,27,0.00,,,0.00,113.000000,,2013-02-15 23:21:00,
2013-02-15 15:31:00,54.0,21.0,-100.00,NNW,327,2.0,7.0,27,0.00,,,0.00,113.000000,,2013-02-15 23:31:00,
2013-02-15 16:02:00,53.0,17.0,-100.00,NNE,21,2.0,7.0,24,0.00,,,0.00,283.000000,,2013-02-16 00:02:00,
2013-02-15 16:11:00,53.0,17.0,-100.00,NNE,21,2.0,7.0,24,0.00,,,0.00,283.000000,,2013-02-16 00:11:00,
2013-02-15 16:21:00,53.0,17.0,-100.00,NNE,21,2.0,7.0,24,0.00,,,0.00,283.000000,,2013-02-16 00:21:00,
2013-02-15 16:31:00,53.0,17.0,-100.00,NNE,21,2.0,7.0,24,0.00,,,0.00,283.000000,,2013-02-16 00:31:00,
2013-02-15 17:02:00,52.0,18.0,-100.00,WNW,302,2.0,6.0,26,0.00,,,0.00,76.000000,,2013-02-16 01:02:00,
2013-02-15 17:11:00,52.0,18.0,-100.00,WNW,302,2.0,6.0,26,0.00,,,0.00,76.000000,,2013-02-16 01:11:00,
2013-02-15 17:21:00,52.0,18.0,-100.00,WNW,302,2.0,6.0,26,0.00,,,0.00,76.000000,,2013-02-16 01:21:00,
2013-02-15 17:31:00,52.0,18.0,-100.00,WNW,302,2.0,6.0,26,0.00,,,0.00,76.000000,,2013-02-16 01:31:00,
2013-02-15 18:01:00,38.0,22.0,-100.00,South,180,1.0,4.0,52,-99.99,,,0.00,18.000000,,2013-02-16 02:01:00,
2013-02-15 18:11:00,38.0,22.0,-100.00,South,180,1.0,4.0,52,-99.99,,,0.00,18.000000,,2013-02-16 02:11:00,
2013-02-15 18:21:00,38.0,22.0,-100.00,South,180,1.0,4.0,52,-99.99,,,0.00,18.000000,,2013-02-16 02:21:00,
2013-02-15 18:31:00,38.0,22.0,-100.00,South,180,1.0,4.0,52,-99.99,,,0.00,18.000000,,2013-02-16 02:31:00,
2013-02-15 19:01:00,33.0,23.0,-100.00,East,95,1.0,3.0,67,0.00,,,0.00,0.000000,,2013-02-16 03:01:00,
2013-02-15 19:11:00,33.0,23.0,-100.00,East,95,1.0,3.0,67,0.00,,,0.00,0.000000,,2013-02-16 03:11:00,
2013-02-15 19:21:00,33.0,23.0,-100.00,East,95,1.0,3.0,67,0.00,,,0.00,0.000000,,2013-02-16 03:21:00,
2013-02-15 19:31:00,33.0,23.0,-100.00,East,95,1.0,3.0,67,0.00,,,0.00,0.000000,,2013-02-16 03:31:00,
2013-02-15 20:01:00,30.0,23.0,-100.00,NNE,24,1.0,2.0,76,0.00,,,0.00,0.000000,,2013-02-16 04:01:00,
2013-02-15 20:11:00,30.0,23.0,-100.00,NNE,24,1.0,2.0,76,0.00,,,0.00,0.000000,,2013-02-16 04:11:00,
2013-02-15 20:21:00,30.0,23.0,-100.00,NNE,24,1.0,2.0,76,0.00,,,0.00,0.000000,,2013-02-16 04:21:00,
2013-02-15 20:31:00,30.0,23.0,-100.00,NNE,24,1.0,2.0,76,0.00,,,0.00,0.000000,,2013-02-16 04:31:00,
2013-02-15 21:01:00,27.0,23.0,-100.00,North,356,1.0,2.0,83,0.00,,,0.00,0.000000,,2013-02-16 05:01:00,
2013-02-15 21:11:00,27.0,23.0,-100.00,North,356,1.0,2.0,83,0.00,,,0.00,0.000000,,2013-02-16 05:11:00,
2013-02-15 21:21:00,27.0,23.0,-100.00,North,356,1.0,2.0,83,0.00,,,0.00,0.000000,,2013-02-16 05:21:00,
2013-02-15 22:01:00,25.0,22.0,-100.00,ESE,114,0.0,2.0,88,-99.99,,,0.00,0.000000,,2013-02-16 06:01:00,
2013-02-15 22:11:00,25.0,22.0,-100.00,ESE,114,0.0,2.0,88,-99.99,,,0.00,0.000000,,2013-02-16 06:11:00,
2013-02-15 22:21:00,25.0,22.0,-100.00,ESE,114,0.0,2.0,88,-99.99,,,0.00,0.000000,,2013-02-16 06:21:00,
2013-02-15 23:02:00,24.0,22.0,-100.00,ENE,65,0.0,1.0,90,-99.99,,,-99.99,0.000000,,2013-02-16 07:02:00,
2013-02-15 23:11:00,24.0,22.0,-100.00,ENE,65,0.0,1.0,90,-99.99,,,-99.99,0.000000,,2013-02-16 07:11:00,
2013-02-15 23:21:00,24.0,22.0,-100.00,ENE,65,0.0,1.0,90,-99.99,,,-99.99,0.000000,,2013-02-16 07:21:00,